Time;durP1;ratioP1;P1;durP2;ratioP2;P2;SDS_P1;SDS_P2;PMS_P1;PMS_P2;Temp;Humidity;BMP_temperature;BMP_pressure;BME280_temperature;BME280_humidity;BME280_pressure;Samples;Min_cycle;Max_cycle;Signal;HPM_P1;HPM_P2
2022/07/02 00:02:26;;;;;;;11.40;10.30;;;21.00;99.90;;;;;;4991802;28;20046;-67
2022/07/02 00:05:06;;;;;;;11.73;10.68;;;21.00;99.90;;;;;;4998694;28;20061;-70
2022/07/02 00:07:33;;;;;;;11.07;9.80;;;21.00;99.90;;;;;;4986145;28;20081;-67
2022/07/02 00:10:00;;;;;;;10.50;9.57;;;21.00;99.90;;;;;;4996333;28;20115;-67
2022/07/02 00:12:29;;;;;;;10.60;9.60;;;20.90;99.90;;;;;;4995058;28;20129;-69
2022/07/02 00:14:59;;;;;;;10.65;9.60;;;20.90;99.90;;;;;;4997950;28;20131;-67
2022/07/02 00:17:26;;;;;;;16.70;9.68;;;20.90;99.90;;;;;;4996670;28;20074;-69
2022/07/02 00:19:53;;;;;;;10.95;9.13;;;20.90;99.90;;;;;;4999009;28;20046;-69
2022/07/02 00:22:21;;;;;;;10.07;8.57;;;20.90;99.90;;;;;;4992921;28;20173;-68
2022/07/02 00:24:48;;;;;;;13.90;10.05;;;20.90;99.90;;;;;;5002756;28;20054;-67
2022/07/02 00:27:18;;;;;;;9.98;8.93;;;20.90;99.90;;;;;;5004779;28;20052;-71
2022/07/02 00:29:58;;;;;;;12.68;10.40;;;20.90;99.90;;;;;;4993516;28;20049;-67
2022/07/02 00:32:28;;;;;;;9.45;8.50;;;20.90;99.90;;;;;;4999760;28;20097;-72
2022/07/02 00:34:57;;;;;;;11.43;7.95;;;20.90;99.90;;;;;;4993372;28;20432;-68
2022/07/02 00:37:28;;;;;;;8.73;7.85;;;20.90;99.90;;;;;;4987001;28;20459;-68
2022/07/02 00:39:55;;;;;;;13.25;9.07;;;20.90;99.90;;;;;;4995676;28;20053;-73
2022/07/02 00:42:24;;;;;;;12.85;7.38;;;20.80;99.90;;;;;;4987635;28;20054;-70
2022/07/02 00:44:52;;;;;;;12.38;7.82;;;20.80;99.90;;;;;;4999452;28;20050;-67
2022/07/02 00:47:24;;;;;;;7.45;6.53;;;20.80;99.90;;;;;;4996592;28;20067;-67
2022/07/02 00:49:51;;;;;;;7.03;6.32;;;20.80;99.90;;;;;;4994445;28;20058;-68
2022/07/02 00:52:17;;;;;;;7.57;5.90;;;20.80;99.90;;;;;;4999301;28;20125;-70
2022/07/02 00:54:44;;;;;;;8.38;5.53;;;20.80;99.90;;;;;;5003105;28;20065;-67
2022/07/02 00:57:12;;;;;;;7.22;5.80;;;20.80;99.90;;;;;;5001561;28;20221;-67
2022/07/02 00:59:40;;;;;;;9.20;6.68;;;20.80;99.90;;;;;;4987229;28;20078;-66
2022/07/02 01:02:07;;;;;;;6.72;6.15;;;20.80;99.90;;;;;;4995222;28;20742;-69
2022/07/02 01:04:35;;;;;;;10.27;7.10;;;20.80;99.90;;;;;;4990795;28;20050;-67
2022/07/02 01:07:09;;;;;;;10.45;6.60;;;20.80;99.90;;;;;;4998536;28;20140;-67
2022/07/02 01:12:28;;;;;;;10.57;6.43;;;20.70;99.90;;;;;;4991782;28;20128;-72
2022/07/02 01:14:56;;;;;;;6.43;5.53;;;20.70;99.90;;;;;;5005447;28;20073;-69
2022/07/02 01:17:23;;;;;;;6.07;5.47;;;20.70;99.90;;;;;;4992916;28;20344;-66
2022/07/02 01:19:51;;;;;;;5.97;5.00;;;20.60;99.90;;;;;;4995947;28;20463;-70
2022/07/02 01:22:23;;;;;;;6.15;5.20;;;20.60;99.90;;;;;;4990816;28;20093;-70
2022/07/02 01:24:53;;;;;;;6.03;4.88;;;20.60;99.90;;;;;;4995404;28;20719;-69
2022/07/02 01:27:21;;;;;;;6.70;5.40;;;20.60;99.90;;;;;;4998136;28;20049;-67
2022/07/02 01:29:49;;;;;;;6.43;5.22;;;20.50;99.90;;;;;;4997490;28;20404;-68
2022/07/02 01:32:17;;;;;;;7.78;6.30;;;20.50;99.90;;;;;;4992331;28;20116;-69
2022/07/02 01:34:47;;;;;;;6.93;5.72;;;20.50;99.90;;;;;;5000553;28;20062;-67
2022/07/02 01:37:15;;;;;;;6.65;4.80;;;20.40;99.90;;;;;;4994791;28;20053;-69
2022/07/02 01:39:43;;;;;;;12.25;5.93;;;20.40;99.90;;;;;;4996505;28;20058;-67
2022/07/02 01:42:11;;;;;;;6.45;4.47;;;20.40;99.90;;;;;;5003363;28;20085;-66
2022/07/02 01:44:39;;;;;;;6.82;4.03;;;20.40;99.90;;;;;;5005237;28;20116;-69
2022/07/02 01:47:09;;;;;;;5.75;4.72;;;20.30;99.90;;;;;;4995219;28;20054;-71
2022/07/02 01:49:37;;;;;;;4.90;4.38;;;20.40;99.90;;;;;;4993583;28;20614;-69
2022/07/02 01:52:06;;;;;;;7.95;4.22;;;20.40;99.90;;;;;;5005752;28;20606;-66
2022/07/02 01:54:33;;;;;;;7.80;4.60;;;20.40;99.90;;;;;;5002357;28;20136;-72
2022/07/02 01:57:01;;;;;;;8.55;4.45;;;20.40;99.90;;;;;;5002963;28;20103;-66
2022/07/02 01:59:28;;;;;;;4.25;3.72;;;20.40;99.90;;;;;;5002096;28;20054;-70
2022/07/02 02:01:55;;;;;;;9.70;3.92;;;20.30;99.90;;;;;;4992375;28;20054;-71
2022/07/02 02:04:22;;;;;;;4.93;3.85;;;20.40;99.90;;;;;;4997643;28;20451;-66
2022/07/02 02:06:49;;;;;;;10.10;4.20;;;20.40;99.90;;;;;;4995641;28;20129;-67
2022/07/02 02:09:16;;;;;;;7.88;4.47;;;20.40;99.90;;;;;;4992660;28;20073;-71
2022/07/02 02:11:43;;;;;;;4.13;3.72;;;20.40;99.90;;;;;;4996841;28;20054;-69
2022/07/02 02:14:10;;;;;;;7.93;5.35;;;20.40;99.90;;;;;;4994591;28;20046;-68
2022/07/02 02:16:37;;;;;;;7.28;5.03;;;20.40;99.90;;;;;;4997629;28;21848;-71
2022/07/02 02:19:05;;;;;;;9.00;6.32;;;20.30;99.90;;;;;;4993780;28;20069;-69
2022/07/02 02:21:32;;;;;;;12.57;5.05;;;20.30;99.90;;;;;;4995483;28;20127;-65
2022/07/02 02:24:00;;;;;;;9.10;5.65;;;20.30;99.90;;;;;;5010449;28;20104;-73
2022/07/02 02:26:27;;;;;;;8.98;5.38;;;20.30;99.90;;;;;;4992959;28;20058;-69
2022/07/02 02:28:54;;;;;;;10.40;6.35;;;20.30;99.90;;;;;;5000066;28;20042;-72
2022/07/02 02:31:22;;;;;;;9.80;7.10;;;20.30;99.90;;;;;;4995014;28;20046;-70
2022/07/02 02:33:49;;;;;;;6.80;5.80;;;20.30;99.90;;;;;;4997961;28;20053;-69
2022/07/02 02:36:16;;;;;;;7.95;6.57;;;20.30;99.90;;;;;;4994484;28;20050;-68
2022/07/02 02:38:46;;;;;;;10.95;7.63;;;20.30;99.90;;;;;;4995807;28;20068;-72
2022/07/02 02:41:13;;;;;;;8.32;7.47;;;20.30;99.90;;;;;;4992594;28;20699;-68
2022/07/02 02:43:41;;;;;;;15.75;10.35;;;20.30;99.90;;;;;;4991384;28;20140;-66
2022/07/02 02:46:08;;;;;;;9.30;7.35;;;20.30;99.90;;;;;;5003320;28;20069;-66
2022/07/02 02:48:36;;;;;;;7.95;7.10;;;20.30;99.90;;;;;;4990650;28;20134;-69
2022/07/02 02:51:07;;;;;;;8.60;7.45;;;20.30;99.90;;;;;;5004512;28;20467;-66
2022/07/02 02:53:34;;;;;;;7.57;5.75;;;20.20;99.90;;;;;;4993520;28;20203;-71
2022/07/02 02:56:03;;;;;;;13.43;6.38;;;20.20;99.90;;;;;;5000441;28;20112;-66
2022/07/02 02:58:29;;;;;;;7.60;6.90;;;20.20;99.90;;;;;;5001805;28;20581;-72
2022/07/02 03:00:56;;;;;;;6.10;5.50;;;20.20;99.90;;;;;;5005031;28;20115;-66
2022/07/02 03:03:24;;;;;;;5.65;4.88;;;20.20;99.90;;;;;;5005900;28;20060;-71
2022/07/02 03:05:51;;;;;;;10.10;5.82;;;20.20;99.90;;;;;;4999705;28;20187;-66
2022/07/02 03:08:19;;;;;;;8.02;4.97;;;20.20;99.90;;;;;;4998400;28;20191;-69
2022/07/02 03:10:47;;;;;;;7.32;5.72;;;20.20;99.90;;;;;;5001193;28;20631;-66
2022/07/02 03:13:15;;;;;;;5.90;4.70;;;20.20;99.90;;;;;;5003221;28;20054;-68
2022/07/02 03:15:42;;;;;;;10.10;5.63;;;20.20;99.90;;;;;;4997788;28;20053;-69
2022/07/02 03:18:09;;;;;;;6.88;6.28;;;20.20;99.90;;;;;;5005716;28;20175;-65
2022/07/02 03:20:36;;;;;;;5.70;5.07;;;20.20;99.90;;;;;;4995790;28;20058;-68
2022/07/02 03:23:03;;;;;;;5.78;4.72;;;20.20;99.90;;;;;;5003990;28;20049;-67
2022/07/02 03:25:30;;;;;;;4.93;4.47;;;20.20;99.90;;;;;;4997559;28;20089;-68
2022/07/02 03:27:57;;;;;;;6.43;5.68;;;20.20;99.90;;;;;;4992226;28;20046;-67
2022/07/02 03:30:24;;;;;;;6.22;5.63;;;20.20;99.90;;;;;;5004501;28;20128;-67
2022/07/02 03:32:51;;;;;;;7.10;5.35;;;20.20;99.90;;;;;;4998088;28;20050;-65
2022/07/02 03:35:18;;;;;;;5.80;5.30;;;20.20;99.90;;;;;;4993391;28;20617;-70
2022/07/02 03:37:45;;;;;;;5.25;4.75;;;20.30;99.90;;;;;;4989933;28;20153;-67
2022/07/02 03:40:12;;;;;;;6.35;5.70;;;20.30;99.90;;;;;;5001948;28;20164;-66
2022/07/02 03:42:39;;;;;;;5.57;5.07;;;20.30;99.90;;;;;;4997416;28;20058;-67
2022/07/02 03:45:06;;;;;;;6.15;5.55;;;20.30;99.90;;;;;;4992240;28;20077;-68
2022/07/02 03:47:33;;;;;;;6.13;5.60;;;20.20;99.90;;;;;;4995440;28;20065;-66
2022/07/02 03:50:00;;;;;;;8.32;5.97;;;20.20;99.90;;;;;;4992757;28;20077;-67
2022/07/02 03:52:27;;;;;;;6.55;5.75;;;20.20;99.90;;;;;;4992080;28;20173;-67
2022/07/02 03:54:54;;;;;;;7.85;5.30;;;20.10;99.90;;;;;;4995569;28;20893;-70
2022/07/02 03:57:21;;;;;;;5.85;5.18;;;20.10;99.90;;;;;;5000042;28;20080;-65
2022/07/02 03:59:48;;;;;;;5.32;4.93;;;20.10;99.90;;;;;;4997876;28;20053;-66
2022/07/02 04:02:15;;;;;;;5.45;4.95;;;20.10;99.90;;;;;;4998493;28;20104;-69
2022/07/02 04:04:42;;;;;;;9.80;6.22;;;20.10;99.90;;;;;;4997351;28;20046;-67
2022/07/02 04:07:10;;;;;;;7.07;5.75;;;20.10;99.90;;;;;;4997785;28;20052;-66
2022/07/02 04:09:37;;;;;;;6.40;5.43;;;20.10;99.90;;;;;;5001207;28;20144;-68
2022/07/02 04:12:04;;;;;;;5.68;4.90;;;20.10;99.90;;;;;;5001512;28;20084;-66
2022/07/02 04:14:31;;;;;;;6.20;4.95;;;20.10;99.90;;;;;;5003961;28;20483;-66
2022/07/02 04:16:58;;;;;;;6.03;5.43;;;20.10;99.90;;;;;;5012411;28;20151;-72
2022/07/02 04:19:25;;;;;;;6.65;5.15;;;20.20;99.90;;;;;;4997035;28;20055;-70
2022/07/02 04:21:52;;;;;;;9.05;6.10;;;20.20;99.90;;;;;;4997455;28;20468;-68
2022/07/02 04:24:19;;;;;;;9.70;6.43;;;20.30;99.90;;;;;;5000315;28;20111;-68
2022/07/02 04:26:46;;;;;;;6.60;4.85;;;20.30;99.90;;;;;;5002123;28;20113;-66
2022/07/02 04:29:13;;;;;;;6.78;5.05;;;20.30;99.90;;;;;;5006619;28;20038;-66
2022/07/02 04:31:40;;;;;;;10.95;4.45;;;20.40;99.90;;;;;;4998906;28;20160;-70
2022/07/02 04:34:07;;;;;;;5.35;4.85;;;20.40;99.90;;;;;;5001964;28;20060;-66
2022/07/02 04:36:34;;;;;;;5.85;5.07;;;20.40;99.90;;;;;;4996266;28;20053;-70
2022/07/02 04:39:02;;;;;;;5.50;4.80;;;20.40;99.90;;;;;;4992540;28;20488;-68
2022/07/02 04:41:29;;;;;;;5.47;4.97;;;20.50;99.90;;;;;;4996633;28;20077;-70
2022/07/02 04:43:56;;;;;;;5.57;5.07;;;20.50;99.90;;;;;;5001981;28;20377;-66
2022/07/02 04:46:23;;;;;;;6.28;5.03;;;20.60;99.90;;;;;;5000208;28;20115;-67
2022/07/02 04:48:51;;;;;;;5.05;4.63;;;20.50;99.90;;;;;;4993701;28;20065;-72
2022/07/02 04:51:18;;;;;;;5.18;4.10;;;20.60;99.90;;;;;;4994469;28;20058;-70
2022/07/02 04:53:45;;;;;;;5.63;4.90;;;20.60;99.90;;;;;;4995567;28;20092;-66
2022/07/02 04:56:12;;;;;;;10.45;6.05;;;20.70;99.90;;;;;;5001442;28;20443;-67
2022/07/02 04:58:39;;;;;;;5.60;5.00;;;20.70;99.90;;;;;;5010482;28;20053;-72
2022/07/02 05:01:06;;;;;;;4.68;4.15;;;20.80;99.90;;;;;;4999409;28;20476;-67
2022/07/02 05:03:32;;;;;;;5.80;5.20;;;20.80;99.90;;;;;;4994373;28;20058;-66
2022/07/02 05:05:59;;;;;;;5.35;4.85;;;20.80;99.90;;;;;;4998352;28;20052;-67
2022/07/02 05:08:27;;;;;;;6.13;4.00;;;20.80;99.90;;;;;;4994496;28;20069;-73
2022/07/02 05:10:54;;;;;;;7.95;5.10;;;20.80;99.90;;;;;;5001529;28;20512;-67
2022/07/02 05:13:22;;;;;;;6.28;4.20;;;20.90;99.90;;;;;;4991392;28;20054;-67
2022/07/02 05:15:50;;;;;;;5.30;4.75;;;20.80;99.90;;;;;;5016073;28;20085;-68
2022/07/02 05:18:17;;;;;;;7.90;5.75;;;20.80;99.90;;;;;;5031716;28;20039;-68
2022/07/02 05:20:44;;;;;;;4.72;4.22;;;20.80;99.90;;;;;;5024358;28;20053;-70
2022/07/02 05:23:11;;;;;;;6.00;4.38;;;20.80;99.90;;;;;;5027963;28;20651;-67
2022/07/02 05:25:38;;;;;;;8.18;5.40;;;20.80;99.90;;;;;;5025026;28;20112;-68
2022/07/02 05:28:04;;;;;;;5.93;4.90;;;20.80;99.90;;;;;;5026862;28;20826;-69
2022/07/02 05:30:32;;;;;;;5.22;4.72;;;20.80;99.90;;;;;;5018519;28;20052;-69
2022/07/02 05:32:59;;;;;;;5.63;5.15;;;20.70;99.90;;;;;;5029177;28;20044;-69
2022/07/02 05:35:26;;;;;;;7.20;5.15;;;20.70;99.90;;;;;;5020061;28;20412;-68
2022/07/02 05:37:53;;;;;;;6.25;5.20;;;20.60;99.90;;;;;;5017948;28;20049;-69
2022/07/02 05:40:20;;;;;;;8.95;5.18;;;20.60;99.90;;;;;;5021840;28;20115;-71
2022/07/02 05:42:47;;;;;;;5.22;4.70;;;20.60;99.90;;;;;;5019385;28;20076;-67
2022/07/02 05:45:14;;;;;;;6.00;4.32;;;20.60;99.90;;;;;;5025793;28;20111;-66
2022/07/02 05:47:41;;;;;;;5.00;3.97;;;20.50;99.90;;;;;;5014296;28;20049;-68
2022/07/02 05:50:09;;;;;;;5.82;4.30;;;20.50;99.90;;;;;;5023183;28;20049;-65
2022/07/02 05:52:36;;;;;;;6.85;4.53;;;20.50;99.90;;;;;;5022305;28;20571;-66
2022/07/02 05:55:04;;;;;;;7.90;5.32;;;20.50;99.90;;;;;;5018902;28;20053;-66
2022/07/02 05:57:31;;;;;;;6.07;4.63;;;20.40;99.90;;;;;;5007691;28;20104;-68
2022/07/02 05:59:58;;;;;;;7.75;4.80;;;20.40;99.90;;;;;;5021216;28;20049;-67
2022/07/02 06:02:25;;;;;;;5.82;4.93;;;20.40;99.90;;;;;;5020423;28;20133;-66
2022/07/02 06:04:52;;;;;;;8.77;6.15;;;20.40;99.90;;;;;;5016498;28;20050;-69
2022/07/02 06:10:06;;;;;;;10.55;8.75;;;20.40;99.90;;;;;;4993241;28;20429;-70
2022/07/02 06:12:33;;;;;;;5.78;4.85;;;20.30;99.90;;;;;;4991602;28;20436;-68
2022/07/02 06:15:03;;;;;;;4.97;4.55;;;20.40;99.90;;;;;;5006657;28;20045;-66
2022/07/02 06:17:30;;;;;;;6.47;4.32;;;20.30;99.90;;;;;;5001366;28;20054;-66
2022/07/02 06:19:57;;;;;;;8.50;5.65;;;20.30;99.90;;;;;;4994345;28;20120;-67
2022/07/02 06:22:24;;;;;;;8.05;4.38;;;20.30;99.90;;;;;;5004166;28;20471;-73
2022/07/02 06:24:52;;;;;;;5.40;4.65;;;20.30;99.90;;;;;;5005531;28;20100;-66
2022/07/02 06:27:19;;;;;;;6.28;5.15;;;20.30;99.90;;;;;;4998812;28;21076;-72
2022/07/02 06:29:48;;;;;;;6.82;5.18;;;20.30;99.90;;;;;;5001154;28;20189;-67
2022/07/02 06:32:18;;;;;;;6.57;4.82;;;20.30;99.90;;;;;;4997763;28;20544;-71
2022/07/02 06:34:45;;;;;;;7.10;6.40;;;20.30;99.90;;;;;;4992765;28;20705;-69
2022/07/02 06:37:12;;;;;;;8.07;5.65;;;20.30;99.90;;;;;;4997953;28;20149;-68
2022/07/02 06:39:38;;;;;;;6.28;5.68;;;20.40;99.90;;;;;;4999641;28;20054;-66
2022/07/02 06:42:26;;;;;;;9.63;5.22;;;20.40;99.90;;;;;;5008617;28;20049;-68
2022/07/02 06:44:56;;;;;;;6.05;5.18;;;20.40;99.90;;;;;;4999698;28;20513;-68
2022/07/02 06:47:26;;;;;;;7.07;5.60;;;20.40;99.90;;;;;;5005080;28;20131;-66
2022/07/02 06:49:55;;;;;;;7.80;5.65;;;20.40;99.90;;;;;;4998949;28;20455;-72
2022/07/02 06:52:23;;;;;;;5.95;5.40;;;20.40;99.90;;;;;;5004314;28;20053;-69
2022/07/02 06:54:50;;;;;;;4.93;4.43;;;20.40;99.90;;;;;;5002932;28;20636;-65
2022/07/02 06:57:17;;;;;;;3.40;3.05;;;20.30;99.90;;;;;;4997620;28;20054;-71
2022/07/02 06:59:52;;;;;;;2.72;2.53;;;20.10;99.90;;;;;;4999463;28;20049;-67
2022/07/02 07:02:19;;;;;;;3.60;2.22;;;19.90;99.90;;;;;;5001691;28;20081;-68
2022/07/02 07:04:46;;;;;;;2.13;1.85;;;19.80;99.90;;;;;;5002142;28;20069;-66
2022/07/02 07:07:13;;;;;;;2.58;2.03;;;19.50;99.90;;;;;;4998130;28;20136;-65
2022/07/02 07:09:40;;;;;;;2.22;1.92;;;19.40;99.90;;;;;;4991280;28;20061;-67
2022/07/02 07:12:07;;;;;;;1.23;1.13;;;19.40;99.90;;;;;;5011287;28;20136;-67
2022/07/02 07:14:35;;;;;;;1.15;1.05;;;19.30;99.90;;;;;;5003715;28;20057;-69
2022/07/02 07:17:03;;;;;;;1.52;1.40;;;19.20;99.90;;;;;;4998464;28;20052;-65
2022/07/02 07:19:30;;;;;;;1.88;1.38;;;19.10;99.90;;;;;;5000920;28;20073;-70
2022/07/02 07:21:57;;;;;;;1.33;1.25;;;19.10;99.90;;;;;;5010508;28;20045;-66
2022/07/02 07:24:24;;;;;;;1.40;1.30;;;19.10;99.90;;;;;;5001800;28;20057;-66
2022/07/02 07:26:51;;;;;;;2.78;1.48;;;19.00;99.90;;;;;;4997344;28;20088;-68
2022/07/02 07:29:18;;;;;;;1.20;1.20;;;18.90;99.90;;;;;;4998601;28;20495;-67
2022/07/02 07:31:45;;;;;;;3.30;2.20;;;18.90;99.90;;;;;;4994284;28;20145;-68
2022/07/02 07:34:12;;;;;;;2.10;1.92;;;18.80;99.90;;;;;;5011614;28;20131;-66
2022/07/02 07:36:40;;;;;;;1.40;1.30;;;18.80;99.90;;;;;;5002879;28;20050;-72
2022/07/02 07:39:07;;;;;;;1.55;1.45;;;18.80;99.90;;;;;;5001203;28;20816;-65
2022/07/02 07:41:34;;;;;;;3.30;1.27;;;18.70;99.90;;;;;;5001459;28;20498;-66
2022/07/02 07:44:02;;;;;;;2.15;1.10;;;18.60;99.90;;;;;;5004966;28;20050;-65
2022/07/02 07:46:29;;;;;;;1.35;1.30;;;18.40;99.90;;;;;;4999857;28;20506;-73
2022/07/02 07:48:58;;;;;;;1.00;0.90;;;18.40;99.90;;;;;;4998266;28;20120;-65
2022/07/02 07:51:25;;;;;;;1.02;0.98;;;18.20;99.90;;;;;;4997313;28;20046;-67
2022/07/02 07:53:52;;;;;;;1.50;0.80;;;18.10;99.90;;;;;;5001889;28;20129;-67
2022/07/02 07:56:20;;;;;;;0.80;0.80;;;18.00;99.90;;;;;;4993078;28;20053;-67
2022/07/02 07:58:47;;;;;;;1.38;1.27;;;17.90;99.90;;;;;;4999880;28;20080;-68
2022/07/02 08:01:14;;;;;;;4.45;4.22;;;17.80;99.90;;;;;;5001991;28;20042;-67
2022/07/02 08:03:41;;;;;;;1.77;1.65;;;17.90;99.90;;;;;;4997141;28;20136;-65
2022/07/02 08:06:08;;;;;;;2.38;1.65;;;17.90;99.90;;;;;;5001069;28;20092;-66
2022/07/02 08:08:34;;;;;;;1.42;1.33;;;17.90;99.90;;;;;;4999816;28;20058;-65
2022/07/02 08:11:03;;;;;;;2.55;1.40;;;17.90;99.90;;;;;;4997831;28;20069;-69
2022/07/02 08:13:30;;;;;;;2.20;1.98;;;18.00;99.90;;;;;;5000246;28;20203;-69
2022/07/02 08:15:57;;;;;;;2.83;1.33;;;18.00;99.90;;;;;;4997271;28;21181;-66
2022/07/02 08:18:24;;;;;;;3.83;1.33;;;18.00;99.90;;;;;;5004207;28;20045;-70
2022/07/02 08:20:51;;;;;;;0.82;0.70;;;18.00;99.90;;;;;;4989503;28;20125;-66
2022/07/02 08:23:18;;;;;;;1.33;0.73;;;18.10;99.90;;;;;;5012956;28;20049;-69
2022/07/02 08:25:45;;;;;;;3.78;1.73;;;18.20;99.90;;;;;;4996572;28;20124;-66
2022/07/02 08:28:12;;;;;;;2.85;1.45;;;18.30;99.90;;;;;;5009588;28;20448;-65
2022/07/02 08:30:39;;;;;;;2.28;0.60;;;18.30;99.90;;;;;;5003927;28;20701;-66
2022/07/02 08:33:06;;;;;;;7.00;2.10;;;18.40;99.90;;;;;;4999513;28;20086;-66
2022/07/02 08:35:32;;;;;;;1.38;0.60;;;18.50;99.90;;;;;;4993740;28;20189;-68
2022/07/02 08:37:59;;;;;;;2.05;0.60;;;18.60;99.90;;;;;;4994724;28;20136;-68
2022/07/02 08:40:29;;;;;;;1.35;0.60;;;18.70;99.90;;;;;;4997888;28;20165;-65
2022/07/02 08:42:59;;;;;;;1.60;1.50;;;18.80;99.90;;;;;;5007377;28;20112;-66
2022/07/02 08:45:30;;;;;;;1.57;0.70;;;19.00;99.90;;;;;;4997058;28;20451;-70
2022/07/02 08:47:58;;;;;;;2.15;0.90;;;19.10;99.90;;;;;;4995089;28;20056;-70
2022/07/02 08:50:26;;;;;;;3.10;0.80;;;19.30;99.90;;;;;;5002227;28;20057;-66
2022/07/02 08:52:54;;;;;;;1.05;0.95;;;19.30;99.90;;;;;;5001776;28;20068;-72
2022/07/02 08:55:22;;;;;;;3.70;0.93;;;19.30;99.90;;;;;;5006962;28;20096;-68
2022/07/02 08:57:50;;;;;;;2.67;1.40;;;19.40;99.90;;;;;;4999258;28;20104;-67
2022/07/02 09:00:20;;;;;;;2.95;1.55;;;19.30;99.90;;;;;;5006426;28;20075;-71
2022/07/02 09:02:55;;;;;;;2.15;1.30;;;19.40;99.90;;;;;;4997375;28;20046;-67
2022/07/02 09:05:23;;;;;;;1.52;1.40;;;19.40;99.90;;;;;;5004366;28;20078;-66
2022/07/02 09:07:51;;;;;;;1.20;1.10;;;19.30;99.90;;;;;;5006232;28;20534;-69
2022/07/02 09:10:23;;;;;;;2.00;1.35;;;19.30;99.90;;;;;;5006306;28;20147;-71
2022/07/02 09:12:53;;;;;;;2.22;1.50;;;19.30;99.90;;;;;;5003163;28;20500;-69
2022/07/02 09:15:20;;;;;;;9.75;2.33;;;19.30;99.90;;;;;;4995993;28;20069;-69
2022/07/02 09:17:48;;;;;;;1.98;1.88;;;19.10;99.90;;;;;;5005389;28;20115;-68
2022/07/02 09:20:16;;;;;;;2.08;1.30;;;19.10;99.90;;;;;;5001073;28;20120;-71
2022/07/02 09:22:45;;;;;;;3.03;1.30;;;19.00;99.90;;;;;;5013083;28;20069;-69
2022/07/02 09:25:18;;;;;;;1.40;1.30;;;19.00;99.90;;;;;;5000770;28;20085;-66
2022/07/02 09:27:47;;;;;;;1.27;1.17;;;19.00;99.90;;;;;;5002655;28;20830;-66
2022/07/02 09:30:18;;;;;;;1.75;1.20;;;19.00;99.90;;;;;;5004982;28;20046;-66
2022/07/02 09:33:28;;;;;;;3.33;1.95;;;19.00;99.90;;;;;;5010528;28;20037;-71
2022/07/02 09:35:37;;;;;;;1.70;1.58;;;19.00;99.90;;;;;;5006562;28;20196;-66
2022/07/02 09:38:09;;;;;;;2.00;1.20;;;19.10;99.90;;;;;;5002424;28;20156;-72
2022/07/02 09:40:37;;;;;;;1.15;0.77;;;19.00;99.90;;;;;;5005413;28;20103;-67
2022/07/02 09:43:04;;;;;;;0.90;0.70;;;18.90;99.90;;;;;;4994642;28;20084;-69
2022/07/02 09:45:31;;;;;;;0.77;0.75;;;18.90;99.90;;;;;;4994479;28;20057;-71
2022/07/02 09:48:02;;;;;;;1.42;0.50;;;18.90;99.90;;;;;;4999743;28;20050;-68
2022/07/02 09:50:29;;;;;;;1.30;1.20;;;18.70;99.90;;;;;;5007008;28;20104;-70
2022/07/02 09:52:57;;;;;;;0.82;0.82;;;18.70;99.90;;;;;;5001802;28;20168;-67
2022/07/02 09:55:30;;;;;;;0.85;0.55;;;18.60;99.90;;;;;;5001221;28;20122;-67
2022/07/02 09:58:00;;;;;;;1.75;0.40;;;18.60;99.90;;;;;;4998083;28;20100;-66
2022/07/02 10:00:30;;;;;;;1.65;0.30;;;18.60;99.90;;;;;;5008288;28;20091;-70
2022/07/02 10:02:59;;;;;;;1.20;0.40;;;18.60;99.90;;;;;;5001635;28;20042;-67
2022/07/02 10:05:33;;;;;;;0.50;0.50;;;18.60;99.90;;;;;;5001904;28;20045;-71
2022/07/02 10:08:04;;;;;;;1.50;0.77;;;18.60;99.90;;;;;;4997669;28;21284;-69
2022/07/02 10:10:43;;;;;;;1.33;0.65;;;18.60;99.90;;;;;;5008362;28;20069;-69
2022/07/02 10:13:13;;;;;;;0.93;0.45;;;18.60;99.90;;;;;;5008945;28;20050;-66
2022/07/02 10:16:01;;;;;;;1.77;0.70;;;18.50;99.90;;;;;;4996216;28;20144;-69
2022/07/02 10:18:29;;;;;;;8.38;1.60;;;18.50;99.90;;;;;;5002507;28;20034;-69
2022/07/02 10:20:56;;;;;;;0.90;0.80;;;18.40;99.90;;;;;;5000993;28;20442;-68
2022/07/02 10:23:24;;;;;;;2.58;2.25;;;18.40;99.90;;;;;;5007344;28;20044;-66
2022/07/02 10:25:52;;;;;;;1.15;0.95;;;18.40;99.90;;;;;;5001013;28;20096;-66
2022/07/02 10:28:19;;;;;;;0.98;0.98;;;18.30;99.90;;;;;;5000886;28;20472;-67
2022/07/02 10:30:46;;;;;;;0.95;0.88;;;18.40;99.90;;;;;;5002214;28;20505;-66
2022/07/02 10:33:31;;;;;;;4.20;0.98;;;18.30;99.90;;;;;;5004106;28;20141;-73
2022/07/02 10:36:00;;;;;;;1.05;0.95;;;18.20;99.90;;;;;;5004816;28;20052;-72
2022/07/02 10:38:37;;;;;;;3.95;0.85;;;18.20;99.90;;;;;;5007377;28;20042;-70
2022/07/02 10:41:05;;;;;;;1.70;1.17;;;18.20;99.90;;;;;;4997961;28;20156;-70
2022/07/02 10:43:34;;;;;;;2.58;1.30;;;18.20;99.90;;;;;;5003345;28;20057;-66
2022/07/02 10:46:05;;;;;;;2.05;1.20;;;18.30;99.90;;;;;;5004945;28;20046;-68
2022/07/02 10:48:34;;;;;;;0.73;0.60;;;18.30;99.90;;;;;;4995366;28;20393;-73
2022/07/02 10:51:02;;;;;;;2.55;0.70;;;18.40;99.90;;;;;;5004513;28;20039;-66
2022/07/02 10:53:30;;;;;;;1.77;1.05;;;18.40;99.90;;;;;;5003505;28;20061;-72
2022/07/02 10:55:59;;;;;;;1.60;0.80;;;18.50;99.90;;;;;;5001163;28;20049;-67
2022/07/02 10:58:31;;;;;;;3.10;1.17;;;18.50;99.90;;;;;;5005744;28;20088;-68
2022/07/02 11:01:21;;;;;;;2.88;1.73;;;18.70;99.90;;;;;;4999491;28;20523;-69
2022/07/02 11:03:58;;;;;;;;;;;18.80;99.90;;;;;;5000827;28;20133;-66
2022/07/02 11:06:29;;;;;;;1.38;1.00;;;19.00;99.90;;;;;;4997341;28;19979;-68
2022/07/02 11:09:01;;;;;;;2.40;1.67;;;19.00;99.90;;;;;;5002166;28;20057;-66
2022/07/02 11:11:39;;;;;;;2.20;0.95;;;19.10;99.90;;;;;;4992804;28;20137;-70
2022/07/02 11:14:06;;;;;;;1.50;0.73;;;19.10;99.90;;;;;;5005645;28;20060;-66
2022/07/02 11:16:42;;;;;;;1.45;0.80;;;19.00;99.90;;;;;;5002297;28;20120;-68
2022/07/02 11:19:25;;;;;;;2.35;1.17;;;19.10;99.90;;;;;;4998467;28;20087;-67
2022/07/02 11:21:54;;;;;;;2.35;1.20;;;19.10;99.90;;;;;;5024179;28;20048;-66
2022/07/02 11:24:31;;;;;;;1.83;0.93;;;19.20;99.90;;;;;;5019475;28;20054;-65
2022/07/02 11:26:58;;;;;;;0.70;0.70;;;19.30;99.90;;;;;;5009240;28;20153;-66
2022/07/02 11:29:26;;;;;;;2.05;0.75;;;19.50;99.90;;;;;;5023458;28;20045;-66
2022/07/02 11:31:55;;;;;;;3.40;1.10;;;19.70;99.90;;;;;;5021336;28;20053;-66
2022/07/02 11:34:24;;;;;;;1.40;0.98;;;19.80;99.90;;;;;;5006132;28;20038;-66
2022/07/02 11:36:52;;;;;;;2.30;1.48;;;20.00;99.90;;;;;;5012593;28;20411;-74
2022/07/02 11:39:22;;;;;;;2.70;1.40;;;20.20;99.90;;;;;;5004532;28;20138;-67
2022/07/02 11:41:50;;;;;;;4.25;1.67;;;20.20;99.90;;;;;;4991546;28;20651;-68
2022/07/02 11:44:19;;;;;;;1.27;1.02;;;20.10;99.90;;;;;;4994601;28;20164;-71
2022/07/02 11:46:54;;;;;;;1.63;1.10;;;20.20;99.90;;;;;;4995828;28;20058;-67
2022/07/02 11:49:30;;;;;;;1.48;1.35;;;20.50;99.90;;;;;;4992686;28;20288;-68
2022/07/02 11:51:57;;;;;;;2.20;1.35;;;20.40;99.90;;;;;;4999332;28;20052;-67
2022/07/02 11:54:26;;;;;;;2.92;1.58;;;20.40;99.90;;;;;;5002489;28;20085;-70
2022/07/02 11:56:53;;;;;;;3.70;2.00;;;20.30;99.90;;;;;;4993867;28;20057;-70
2022/07/02 11:59:22;;;;;;;2.03;1.80;;;20.40;99.90;;;;;;4993447;28;20662;-68
2022/07/02 12:01:50;;;;;;;2.45;1.10;;;20.60;99.90;;;;;;4995925;28;20108;-67
2022/07/02 12:04:19;;;;;;;3.60;1.80;;;20.50;99.90;;;;;;4993061;28;20049;-69
2022/07/02 12:06:49;;;;;;;4.30;1.77;;;20.50;99.90;;;;;;4990885;28;20047;-66
2022/07/02 12:09:19;;;;;;;2.50;1.37;;;20.70;99.90;;;;;;4998007;28;20116;-66
2022/07/02 12:11:47;;;;;;;3.05;1.13;;;20.70;99.90;;;;;;4990833;28;20121;-66
2022/07/02 12:14:15;;;;;;;5.40;0.98;;;20.70;99.90;;;;;;4996379;28;20163;-65
2022/07/02 12:16:46;;;;;;;0.98;0.70;;;20.80;99.90;;;;;;4991345;28;20120;-68
2022/07/02 12:19:15;;;;;;;2.70;1.02;;;20.90;99.90;;;;;;4997275;28;20040;-66
2022/07/02 12:21:44;;;;;;;2.72;1.00;;;21.00;99.90;;;;;;4993873;28;20073;-67
2022/07/02 12:24:24;;;;;;;1.40;1.20;;;21.00;99.90;;;;;;4998723;28;20084;-70
2022/07/02 12:26:59;;;;;;;3.67;1.70;;;21.10;99.90;;;;;;5005226;28;20050;-68
2022/07/02 12:32:17;;;;;;;0.82;0.82;;;20.80;99.90;;;;;;5000684;28;20551;-68
2022/07/02 12:34:46;;;;;;;1.42;1.25;;;21.00;99.90;;;;;;4995582;28;20543;-74
2022/07/02 12:37:21;;;;;;;2.20;1.88;;;20.80;99.90;;;;;;4997437;28;20129;-71
2022/07/02 12:39:49;;;;;;;2.08;1.45;;;20.90;99.90;;;;;;4995249;28;20082;-67
2022/07/02 12:42:22;;;;;;;3.00;1.90;;;20.90;99.90;;;;;;4989133;28;20054;-66
2022/07/02 12:44:53;;;;;;;2.45;2.20;;;20.70;99.90;;;;;;4997320;28;20050;-67
2022/07/02 12:47:39;;;;;;;4.07;1.52;;;20.70;99.90;;;;;;5000859;28;20137;-69
2022/07/02 12:50:11;;;;;;;5.35;3.17;;;21.00;99.90;;;;;;4989587;28;20105;-68
2022/07/02 12:52:45;;;;;;;2.20;1.77;;;21.00;99.90;;;;;;4997881;28;20054;-70
2022/07/02 12:55:44;;;;;;;3.42;2.53;;;21.10;99.90;;;;;;4993027;28;20403;-66
2022/07/02 12:58:13;;;;;;;5.68;1.65;;;21.10;99.90;;;;;;4992904;28;20045;-69
2022/07/02 13:00:42;;;;;;;1.30;1.00;;;21.00;99.90;;;;;;4994244;28;20532;-68
2022/07/02 13:03:10;;;;;;;4.32;1.10;;;21.10;99.90;;;;;;4988965;28;20136;-67